Aérodrome :
LOGIN :

S'inscrire | Disclaimer

   EN    FR    IT 

 










Légende :    VFR   VFR Marginal   IFR   IFR Intensif   IFR Très Intensif
Visi : 
Plafond : 
>= 8 km
>= 3000ft
5 à 8 km
1000 à 3000 ft
1500m à 5 km
500 à 1000 ft
800 à 1500m
200 à 500 ft
< 800m
< 200 ft
Symboles :   Orages  Brouillard  Fortes neiges  Fortes précipitations  Vent > 20 kt
SIGMETs :   Divers  Orages  Givrage  Turbulence  Onde Orograph.  Cendres Volcan.







- Altitude de l'aérodrome : 38 ft
- Code IATA : BOH
- Voir les cartes d'approche


EGHH - Bournemouth

DERNIER METAR :
  • 232120Z 23011KT 9999 FEW010 BKN017 11/10 Q1015

METARs EXPIRÉS :
  • 232050Z 23012KT 9999 BKN012 11/09 Q1015
  • 232020Z 23010G22KT 9999 BKN010 11/10 Q1015
  • 231950Z 24012KT 9999 BKN008 11/10 Q1015
  • 231920Z 25014KT 9999 BKN007 11/10 Q1015
  • 231850Z 25014KT 9999 BKN007 12/11 Q1015

TAF TAF EGHH
Valide du 23 à 21h jusqu'au 24 à 06h UTC


232004Z 2321/2406 22010KT 9999 SCT020
PROB30
TEMPO 2321/2324 23015G25KT BKN007
BECMG 2400/2403 23020G30KT
TEMPO 2404/2406 25025G45KT
ATIS : +44 1202 364 151
Météo : +44 1202 364 158 (TAF)
Pas de NOTAMs connus pour ce terrain.
1 SIGMET publié pour la FIR London (EGTT) :
 
Onde orographique forte
EGTT SIGMET 02 VALID 231900/232300 EGRR
EGTT LONDON FIR SEV MTW FCST WI N5443 E00205 - N5356 W00137 - N5500 W00216 - N5500 W00100 - N5500 E00153 - N5443 E00205 SFC/FL150 STNR WKN=



MET'MAP, la Météo Aéronautique d'un coup d'oeil ! - Copyright ORBIFLY Décembre 2007 - Disclaimer

ORBIFLY MET'MAP TEAM :

Programmation & Développement : Alexandra Zaïnal
Conception & Développement : Baudouin d'Aumeries
Co-Programmation & Développement : Marc-Olivier Méhu
Soutien technique & logistique : Manuel Goepfert

Contact : metmap@orbifly.com




SOURCES & CREDITS :

   NOAA